Time;durP1;ratioP1;P1;durP2;ratioP2;P2;SDS_P1;SDS_P2;PMS_P1;PMS_P2;Temp;Humidity;BMP_temperature;BMP_pressure;BME280_temperature;BME280_humidity;BME280_pressure;Samples;Min_cycle;Max_cycle;Signal;HPM_P1;HPM_P2
2021/09/10 00:00:20;;;;;;;;;3.50;3.50;;;;;26.09;51.09;100673.00;5057103;28;45529;-57
2021/09/10 00:02:45;;;;;;;;;3.00;3.00;;;;;26.08;51.02;100672.19;5056540;28;59581;-55
2021/09/10 00:05:11;;;;;;;;;4.00;4.00;;;;;26.08;50.97;100666.88;5057359;28;45644;-52
2021/09/10 00:07:37;;;;;;;;;3.50;3.50;;;;;26.07;50.81;100669.66;5057404;28;45419;-52
2021/09/10 00:10:05;;;;;;;;;5.25;3.00;;;;;26.08;50.72;100666.03;5056960;28;45429;-48
2021/09/10 00:12:30;;;;;;;;;4.00;4.00;;;;;26.06;50.88;100667.97;5039410;28;45738;-49
2021/09/10 00:14:55;;;;;;;;;4.00;4.00;;;;;26.03;50.82;100666.41;5057355;28;45460;-50
2021/09/10 00:17:21;;;;;;;;;5.75;3.25;;;;;26.07;50.83;100667.00;5057182;28;45405;-51
2021/09/10 00:19:46;;;;;;;;;4.00;4.00;;;;;26.06;51.18;100673.28;5056755;28;45484;-49
2021/09/10 00:22:11;;;;;;;;;4.00;4.00;;;;;26.05;50.66;100679.56;5056949;28;45272;-53
2021/09/10 00:24:37;;;;;;;;;3.25;3.25;;;;;26.04;51.08;100678.72;5056928;28;45291;-51
2021/09/10 00:27:03;;;;;;;;;3.50;3.50;;;;;26.04;51.33;100669.91;5057593;28;45654;-52
2021/09/10 00:29:29;;;;;;;;;4.00;3.00;;;;;26.04;50.81;100675.22;5057029;28;45488;-48
2021/09/10 00:31:54;;;;;;;;;4.00;4.00;;;;;26.03;50.86;100673.53;5056310;28;45328;-48
2021/09/10 00:34:19;;;;;;;;;3.25;3.25;;;;;26.04;50.88;100672.56;5056991;28;45463;-48
2021/09/10 00:36:46;;;;;;;;;3.50;3.50;;;;;26.02;51.01;100675.31;5056801;28;45563;-51
2021/09/10 00:39:17;;;;;;;;;4.25;2.00;;;;;26.03;50.95;100670.88;5056734;28;46379;-48
2021/09/10 00:41:43;;;;;;;;;6.00;3.75;;;;;26.02;50.60;100669.19;5056510;28;45277;-46
2021/09/10 00:44:08;;;;;;;;;5.00;5.00;;;;;26.03;50.99;100674.38;5056933;28;45371;-46
2021/09/10 00:46:33;;;;;;;;;3.00;2.50;;;;;26.03;50.95;100677.03;5057126;28;45501;-47
2021/09/10 00:48:59;;;;;;;;;3.75;3.75;;;;;26.02;51.14;100677.16;5056697;28;45297;-48
2021/09/10 00:51:25;;;;;;;;;4.25;3.75;;;;;26.03;50.74;100681.50;5056520;28;45407;-50
2021/09/10 00:53:50;;;;;;;;;4.50;4.50;;;;;26.03;51.16;100684.16;5056536;28;45185;-50
2021/09/10 00:56:15;;;;;;;;;3.00;2.75;;;;;26.01;50.94;100681.63;5038865;28;45422;-53
2021/09/10 00:58:41;;;;;;;;;4.00;4.00;;;;;26.02;50.73;100682.47;5056243;28;46243;-47
2021/09/10 01:01:06;;;;;;;;;2.75;2.00;;;;;26.00;50.68;100684.41;5056433;28;45388;-49
2021/09/10 01:03:32;;;;;;;;;4.25;2.25;;;;;25.99;50.71;100688.03;5056874;28;45312;-49
2021/09/10 01:05:58;;;;;;;;;4.00;4.00;;;;;25.98;50.74;100692.50;5056601;28;45610;-49
2021/09/10 01:08:24;;;;;;;;;2.00;2.00;;;;;25.97;51.04;100701.44;5056292;28;45766;-52
2021/09/10 01:10:50;;;;;;;;;4.75;4.25;;;;;25.98;51.32;100702.25;5056212;28;45444;-49
2021/09/10 01:13:16;;;;;;;;;3.00;3.00;;;;;25.97;51.48;100701.44;5056302;28;45363;-50
2021/09/10 01:15:42;;;;;;;;;5.25;4.25;;;;;25.96;51.08;100694.44;5055295;28;45366;-47
2021/09/10 01:18:07;;;;;;;;;3.00;3.00;;;;;25.97;50.82;100700.56;5056295;28;45494;-51
2021/09/10 01:20:33;;;;;;;;;4.00;3.00;;;;;25.97;51.16;100703.22;5056240;28;45419;-46
2021/09/10 01:22:58;;;;;;;;;2.50;2.50;;;;;25.97;51.20;100705.88;5038391;28;45443;-49
2021/09/10 01:25:24;;;;;;;;;3.00;3.00;;;;;25.96;51.02;100704.22;5056408;28;45311;-47
2021/09/10 01:27:54;;;;;;;;;4.00;4.00;;;;;25.96;50.69;100698.91;5056069;28;45991;-47
2021/09/10 01:30:23;;;;;;;;;3.00;3.00;;;;;25.93;51.44;100695.53;5037963;28;46282;-47
2021/09/10 01:32:48;;;;;;;;;4.75;3.25;;;;;25.93;50.87;100699.97;5056329;28;45356;-48
2021/09/10 01:35:14;;;;;;;;;3.00;3.00;;;;;25.93;50.95;100699.97;5056247;28;45530;-50
2021/09/10 01:37:39;;;;;;;;;2.50;2.50;;;;;25.92;50.83;100704.47;5055903;28;46171;-48
2021/09/10 01:40:07;;;;;;;;;4.00;4.00;;;;;25.92;51.15;100704.47;5056041;28;45202;-47
2021/09/10 01:42:33;;;;;;;;;4.00;3.00;;;;;25.93;50.82;100714.13;5056841;28;45230;-49
2021/09/10 01:44:59;;;;;;;;;4.25;4.25;;;;;25.92;51.20;100704.47;5058231;28;45295;-47
2021/09/10 01:47:24;;;;;;;;;3.00;2.50;;;;;25.91;51.23;100702.78;5059265;28;45329;-48
2021/09/10 01:49:50;;;;;;;;;4.00;3.50;;;;;25.91;51.21;100708.09;5059109;28;45498;-45
2021/09/10 01:52:15;;;;;;;;;2.00;2.00;;;;;25.91;51.36;100708.09;5059419;28;45435;-47
2021/09/10 01:54:40;;;;;;;;;4.00;4.00;;;;;25.85;50.98;100694.44;5059549;28;45386;-45
2021/09/10 01:57:06;;;;;;;;;3.25;2.50;;;;;25.83;50.95;100694.59;5059351;28;46204;-46
2021/09/10 01:59:31;;;;;;;;;5.25;3.75;;;;;25.78;51.41;100696.75;5058802;28;45412;-46
2021/09/10 02:01:57;;;;;;;;;3.00;3.00;;;;;25.71;51.38;100692.91;5059284;28;45285;-48
2021/09/10 02:04:22;;;;;;;;;3.00;2.25;;;;;25.65;51.50;100696.03;5059430;28;45633;-46
2021/09/10 02:06:48;;;;;;;;;4.75;3.75;;;;;25.58;51.88;100699.19;5059117;28;46048;-48
2021/09/10 02:09:14;;;;;;;;;3.00;3.00;;;;;25.52;51.76;100697.00;5058913;28;45485;-49
2021/09/10 02:11:39;;;;;;;;;3.75;2.50;;;;;25.49;51.59;100702.59;5059028;28;45357;-49
2021/09/10 02:14:04;;;;;;;;;4.00;4.00;;;;;25.44;52.15;100702.94;5059398;28;45332;-46
2021/09/10 02:16:30;;;;;;;;;5.75;4.00;;;;;25.38;52.23;100702.56;5058798;28;45552;-46
2021/09/10 02:18:55;;;;;;;;;2.75;2.75;;;;;25.34;52.48;100704.59;5058857;28;45305;-48
2021/09/10 02:21:21;;;;;;;;;3.00;3.00;;;;;25.30;52.47;100706.63;5058822;28;45305;-49
2021/09/10 02:23:46;;;;;;;;;4.25;4.25;;;;;25.29;52.61;100710.28;5059004;28;45150;-45
2021/09/10 02:26:12;;;;;;;;;3.50;3.00;;;;;25.27;52.76;100704.22;5058702;28;46601;-47
2021/09/10 02:28:37;;;;;;;;;2.50;2.50;;;;;25.26;52.21;100707.00;5058849;28;45237;-46
2021/09/10 02:31:03;;;;;;;;;4.50;4.50;;;;;25.26;52.84;100707.84;5058939;28;45312;-46
2021/09/10 02:33:29;;;;;;;;;3.50;3.00;;;;;25.27;52.14;100720.16;5059104;28;45260;-52
2021/09/10 02:35:55;;;;;;;;;4.25;4.25;;;;;25.25;52.39;100715.91;5058723;28;46071;-47
2021/09/10 02:38:22;;;;;;;;;5.25;3.25;;;;;25.26;52.28;100712.28;5058504;28;45795;-46
2021/09/10 02:40:48;;;;;;;;;3.00;3.00;;;;;25.24;52.68;100708.94;5058505;28;45458;-46
2021/09/10 02:43:13;;;;;;;;;3.00;3.00;;;;;25.22;52.54;100711.69;5058815;28;45368;-47
2021/09/10 02:45:39;;;;;;;;;4.75;4.00;;;;;25.22;52.68;100717.00;5058653;28;45422;-50
2021/09/10 02:48:04;;;;;;;;;2.75;2.75;;;;;25.19;52.58;100701.31;5058468;28;45340;-45
2021/09/10 02:50:30;;;;;;;;;3.50;3.50;;;;;25.20;52.93;100710.97;5058788;28;45438;-47
2021/09/10 02:52:55;;;;;;;;;2.25;2.25;;;;;25.18;52.70;100710.25;5058706;28;45609;-45
2021/09/10 02:55:20;;;;;;;;;2.75;2.75;;;;;25.17;52.51;100713.88;5057884;28;46146;-46
2021/09/10 02:57:46;;;;;;;;;6.50;4.75;;;;;25.14;52.58;100711.44;5058237;28;45205;-47
2021/09/10 03:00:12;;;;;;;;;3.25;3.25;;;;;25.13;52.71;100702.66;5058138;28;45257;-47
2021/09/10 03:02:38;;;;;;;;;4.00;3.75;;;;;25.13;53.03;100707.09;5058684;28;45237;-50
2021/09/10 03:05:04;;;;;;;;;4.00;4.00;;;;;25.11;52.80;100698.41;5058135;28;46695;-46
2021/09/10 03:07:30;;;;;;;;;4.25;3.25;;;;;25.08;52.65;100701.31;5057985;28;45347;-46
2021/09/10 03:09:55;;;;;;;;;4.00;3.00;;;;;25.07;53.43;100699.63;5058100;28;45375;-44
2021/09/10 03:12:21;;;;;;;;;5.00;5.00;;;;;25.04;52.76;100687.44;5058278;28;45438;-45
2021/09/10 03:14:46;;;;;;;;;3.50;3.25;;;;;25.04;53.05;100686.59;5058081;28;46361;-46
2021/09/10 03:17:11;;;;;;;;;3.75;3.75;;;;;24.97;53.06;100684.41;5057996;28;45742;-49
2021/09/10 03:19:37;;;;;;;;;4.75;4.75;;;;;24.98;53.10;100691.41;5058166;28;45308;-46
2021/09/10 03:22:02;;;;;;;;;3.50;3.00;;;;;24.99;53.50;100690.44;5058468;28;45527;-46
2021/09/10 03:24:28;;;;;;;;;4.00;4.00;;;;;24.99;53.75;100687.78;5057985;28;45615;-45
2021/09/10 03:26:53;;;;;;;;;5.75;4.00;;;;;25.00;53.11;100689.47;5058020;28;45444;-47
2021/09/10 03:29:18;;;;;;;;;4.25;4.25;;;;;25.00;53.61;100683.34;5057789;28;45324;-46
2021/09/10 03:31:43;;;;;;;;;4.00;4.00;;;;;25.01;53.32;100690.34;5058248;28;45460;-46
2021/09/10 03:34:09;;;;;;;;;5.75;4.25;;;;;24.98;53.64;100693.22;5057919;28;45541;-45
2021/09/10 03:36:34;;;;;;;;;4.00;4.00;;;;;24.99;53.59;100692.25;5057880;28;45425;-50
2021/09/10 03:38:59;;;;;;;;;3.75;3.25;;;;;24.97;53.60;100692.38;5057663;28;45404;-46
2021/09/10 03:41:25;;;;;;;;;4.00;4.00;;;;;24.98;53.85;100688.75;5057699;28;45312;-46
2021/09/10 03:43:53;;;;;;;;;5.50;5.50;;;;;24.99;53.80;100690.44;5057427;28;46902;-45
2021/09/10 03:46:19;;;;;;;;;4.50;4.50;;;;;24.99;53.71;100685.13;5057480;28;45215;-49
2021/09/10 03:48:47;;;;;;;;;5.00;5.00;;;;;24.99;53.76;100681.66;5039611;28;45410;-46
2021/09/10 03:51:13;;;;;;;;;5.50;5.50;;;;;24.97;53.32;100689.72;5058039;28;45330;-46
2021/09/10 03:53:38;;;;;;;;;4.75;4.75;;;;;24.97;53.93;100687.06;5057610;28;47129;-48
2021/09/10 03:56:05;;;;;;;;;5.25;5.25;;;;;24.98;53.65;100688.75;5057496;28;45887;-46
2021/09/10 03:58:30;;;;;;;;;6.00;4.00;;;;;24.99;53.34;100686.97;5057540;28;45257;-46
2021/09/10 04:00:56;;;;;;;;;5.50;4.50;;;;;24.99;53.56;100690.44;5057216;28;45261;-49
2021/09/10 04:03:21;;;;;;;;;5.50;5.50;;;;;24.97;53.61;100683.56;5057301;28;45334;-46
2021/09/10 04:05:47;;;;;;;;;6.00;6.00;;;;;24.95;53.91;100678.41;5056343;28;45319;-45
2021/09/10 04:08:13;;;;;;;;;7.25;6.00;;;;;24.93;53.52;100675.03;5057656;28;45292;-45
2021/09/10 04:10:38;;;;;;;;;5.25;5.25;;;;;24.93;54.23;100682.97;5057433;28;45375;-45
2021/09/10 04:13:04;;;;;;;;;4.00;4.00;;;;;24.95;53.93;100682.84;5057014;28;46175;-46
2021/09/10 04:15:29;;;;;;;;;7.00;5.75;;;;;24.94;54.00;100682.00;5057179;28;45379;-46
2021/09/10 04:17:55;;;;;;;;;7.50;7.50;;;;;24.94;54.22;100681.16;5057438;28;45269;-49
2021/09/10 04:20:20;;;;;;;;;8.00;6.00;;;;;24.95;54.14;100689.00;5057171;28;45320;-47
2021/09/10 04:22:46;;;;;;;;;5.50;5.50;;;;;24.95;53.51;100696.97;5057055;28;45853;-48
2021/09/10 04:25:11;;;;;;;;;4.00;4.00;;;;;24.94;54.14;100697.94;5057044;28;45342;-46
2021/09/10 04:27:37;;;;;;;;;8.00;6.00;;;;;24.94;53.58;100697.06;5057132;28;45404;-46
2021/09/10 04:30:08;;;;;;;;;5.00;4.50;;;;;24.92;53.84;100683.94;5057044;28;45454;-51
2021/09/10 04:32:33;;;;;;;;;6.75;6.25;;;;;24.91;53.78;100692.84;5055361;28;46689;-47
2021/09/10 04:34:59;;;;;;;;;7.25;7.25;;;;;24.92;53.85;100688.38;5056686;28;45267;-46
2021/09/10 04:37:24;;;;;;;;;7.50;6.00;;;;;24.92;54.28;100685.72;5056841;28;45295;-47
2021/09/10 04:39:49;;;;;;;;;4.75;4.75;;;;;24.90;53.83;100688.50;5038653;28;45629;-45
2021/09/10 04:42:15;;;;;;;;;6.25;5.00;;;;;24.90;53.64;100701.75;5056860;28;45356;-44
2021/09/10 04:44:40;;;;;;;;;7.25;6.00;;;;;24.88;54.32;100701.03;5056459;28;45363;-47
2021/09/10 04:47:06;;;;;;;;;7.25;6.00;;;;;24.85;54.01;100691.50;5056670;28;45329;-45
2021/09/10 04:49:31;;;;;;;;;5.25;5.25;;;;;24.84;54.16;100697.78;5056804;28;45460;-48
2021/09/10 04:51:56;;;;;;;;;4.50;4.50;;;;;24.82;54.30;100690.91;5056405;28;46049;-48
2021/09/10 04:54:22;;;;;;;;;4.25;4.00;;;;;24.83;54.15;100695.25;5056422;28;45285;-49
2021/09/10 04:56:47;;;;;;;;;5.50;5.50;;;;;24.81;53.98;100699.81;5056702;28;45406;-45
2021/09/10 04:59:13;;;;;;;;;5.00;5.00;;;;;24.79;54.39;100699.94;5056770;28;45268;-45
2021/09/10 05:01:38;;;;;;;;;8.75;5.00;;;;;24.79;54.44;100704.38;5056337;28;45418;-45
2021/09/10 05:04:04;;;;;;;;;4.50;4.50;;;;;24.79;54.43;100704.38;5056272;28;45446;-46
2021/09/10 05:06:29;;;;;;;;;6.00;6.00;;;;;24.78;54.20;100710.63;5056410;28;45394;-45
2021/09/10 05:08:56;;;;;;;;;6.25;4.75;;;;;24.73;54.04;100704.84;5056504;28;45265;-47
2021/09/10 05:11:21;;;;;;;;;5.50;5.50;;;;;24.72;53.97;100713.78;5055954;28;45423;-52
2021/09/10 05:13:47;;;;;;;;;6.00;4.75;;;;;24.68;54.31;100708.69;5038309;28;45439;-51
2021/09/10 05:16:12;;;;;;;;;5.25;5.25;;;;;24.67;54.18;100712.25;5056516;28;45339;-46
2021/09/10 05:18:37;;;;;;;;;6.00;5.25;;;;;24.65;54.66;100719.47;5060202;28;45497;-55
2021/09/10 05:21:03;;;;;;;;;5.75;4.00;;;;;24.65;54.67;100724.78;5059598;28;46507;-51
2021/09/10 05:23:28;;;;;;;;;7.75;6.00;;;;;24.61;54.27;100720.69;5060061;28;45774;-50
2021/09/10 05:25:54;;;;;;;;;6.25;6.25;;;;;24.60;54.58;100723.44;5059860;28;45598;-48
2021/09/10 05:28:19;;;;;;;;;5.00;5.00;;;;;24.57;54.65;100721.03;5059892;28;45501;-51
2021/09/10 05:30:44;;;;;;;;;6.25;6.25;;;;;24.57;54.51;100723.69;5059800;28;45257;-48
2021/09/10 05:33:10;;;;;;;;;5.50;5.50;;;;;24.55;55.24;100723.78;5059470;28;50163;-47
2021/09/10 05:35:35;;;;;;;;;5.50;5.50;;;;;24.55;54.60;100718.47;5059517;28;45417;-49
2021/09/10 05:38:00;;;;;;;;;5.75;5.75;;;;;24.66;54.54;100736.25;5059697;28;45435;-48
2021/09/10 05:40:26;;;;;;;;;4.25;4.25;;;;;24.76;54.38;100749.66;5059101;28;46067;-50
2021/09/10 05:42:51;;;;;;;;;5.75;5.75;;;;;24.82;55.12;100743.91;5059553;28;45366;-50
2021/09/10 05:45:17;;;;;;;;;7.00;6.00;;;;;24.87;54.66;100741.75;5059778;28;45432;-49
2021/09/10 05:47:42;;;;;;;;;5.00;5.00;;;;;24.96;54.31;100745.50;5059500;28;45643;-47
2021/09/10 05:50:08;;;;;;;;;7.00;6.00;;;;;25.01;54.03;100751.31;5059236;28;45470;-48
2021/09/10 05:52:33;;;;;;;;;6.00;5.25;;;;;25.06;54.45;100748.31;5059345;28;45360;-50
2021/09/10 05:54:58;;;;;;;;;6.50;6.00;;;;;25.09;54.21;100754.22;5059250;28;45454;-50
2021/09/10 05:57:24;;;;;;;;;6.00;4.50;;;;;25.12;54.13;100761.97;5059319;28;45329;-47
2021/09/10 05:59:49;;;;;;;;;5.00;5.00;;;;;25.16;54.18;100767.88;5058916;28;47058;-47
2021/09/10 06:02:15;;;;;;;;;5.25;5.25;;;;;25.18;54.09;100758.00;5059328;28;45435;-47
2021/09/10 06:04:40;;;;;;;;;6.00;5.00;;;;;25.23;53.86;100766.44;5059379;28;45231;-47
2021/09/10 06:07:05;;;;;;;;;5.25;5.25;;;;;25.26;54.04;100771.50;5059390;28;45545;-47
2021/09/10 06:09:32;;;;;;;;;4.75;4.75;;;;;25.29;53.91;100775.72;5058772;28;46475;-46
2021/09/10 06:11:57;;;;;;;;;6.00;6.00;;;;;25.31;53.47;100776.47;5058419;28;45639;-45
2021/09/10 06:14:22;;;;;;;;;6.50;6.00;;;;;25.30;53.32;100780.91;5059097;28;45182;-49
2021/09/10 06:16:48;;;;;;;;;7.00;5.50;;;;;25.36;53.20;100781.41;5059404;28;45624;-47
2021/09/10 06:19:13;;;;;;;;;7.00;7.00;;;;;25.38;53.08;100780.31;5058962;28;45957;-51
2021/09/10 06:21:39;;;;;;;;;4.25;3.50;;;;;25.38;53.47;100780.31;5058706;28;45387;-47
2021/09/10 06:24:04;;;;;;;;;6.00;4.00;;;;;25.41;52.97;100784.59;5058749;28;45244;-46
2021/09/10 06:26:29;;;;;;;;;5.00;5.00;;;;;25.41;53.37;100785.44;5058917;28;45225;-46
2021/09/10 06:28:55;;;;;;;;;6.00;4.25;;;;;25.43;53.19;100772.03;5057874;28;46288;-47
2021/09/10 06:31:20;;;;;;;;;6.50;6.50;;;;;25.44;53.34;100781.69;5041145;28;45388;-48
2021/09/10 06:33:46;;;;;;;;;6.00;5.50;;;;;25.45;53.11;100776.28;5058845;28;45339;-54
2021/09/10 06:36:11;;;;;;;;;8.50;6.25;;;;;25.47;53.25;100776.16;5058686;28;45290;-46
2021/09/10 06:38:36;;;;;;;;;7.00;5.00;;;;;25.50;53.34;100788.31;5058301;28;45483;-50
2021/09/10 06:41:02;;;;;;;;;6.50;5.00;;;;;25.49;53.01;100787.50;5058420;28;45308;-55
2021/09/10 06:43:27;;;;;;;;;6.75;5.25;;;;;25.52;53.11;100789.06;5058528;28;45793;-48
2021/09/10 06:45:52;;;;;;;;;6.00;6.00;;;;;25.53;52.73;100794.22;5058533;28;45454;-47
2021/09/10 06:48:18;;;;;;;;;5.75;4.75;;;;;25.54;53.00;100795.09;5040426;28;47222;-45
2021/09/10 06:50:43;;;;;;;;;4.00;4.00;;;;;25.55;53.07;100799.44;5058198;28;45367;-48
2021/09/10 06:53:09;;;;;;;;;6.50;6.00;;;;;25.52;52.96;100805.81;5058487;28;45425;-46
2021/09/10 06:55:35;;;;;;;;;8.00;6.75;;;;;25.56;52.56;100807.28;5058469;28;45417;-50
2021/09/10 06:58:01;;;;;;;;;5.00;5.00;;;;;25.57;52.44;100816.94;5057953;28;46515;-46
2021/09/10 07:00:26;;;;;;;;;8.50;6.25;;;;;25.57;53.06;100816.94;5056638;28;45435;-46
2021/09/10 07:02:52;;;;;;;;;7.00;5.00;;;;;25.59;52.50;100814.13;5058737;28;45182;-52
2021/09/10 07:05:17;;;;;;;;;4.50;4.50;;;;;25.59;52.77;100822.97;5058306;28;45636;-46
2021/09/10 07:07:42;;;;;;;;;7.00;6.00;;;;;25.59;52.86;100814.13;5057808;28;45404;-49
2021/09/10 07:10:09;;;;;;;;;6.50;5.50;;;;;25.58;52.50;100813.31;5057898;28;45384;-47
2021/09/10 07:12:34;;;;;;;;;6.00;6.00;;;;;25.61;52.48;100821.03;5058042;28;45238;-46
2021/09/10 07:14:59;;;;;;;;;6.25;6.25;;;;;25.61;53.07;100822.84;5058197;28;45700;-50
2021/09/10 07:17:25;;;;;;;;;5.25;5.25;;;;;25.61;52.49;100829.00;5057895;28;46292;-45
2021/09/10 07:19:50;;;;;;;;;6.25;5.00;;;;;25.61;52.65;100823.69;5058059;28;45478;-48
2021/09/10 07:22:16;;;;;;;;;5.25;5.25;;;;;25.61;52.75;100823.69;5057793;28;45347;-45
2021/09/10 07:24:41;;;;;;;;;6.00;6.00;;;;;25.62;52.50;100825.41;5057958;28;45525;-46
2021/09/10 07:27:07;;;;;;;;;7.00;6.00;;;;;25.63;52.79;100819.09;5057421;28;46535;-52
2021/09/10 07:29:32;;;;;;;;;6.50;5.75;;;;;25.65;52.29;100823.44;5057621;28;45446;-45
2021/09/10 07:31:58;;;;;;;;;5.25;5.25;;;;;25.66;52.79;100825.13;5057770;28;45294;-51
2021/09/10 07:34:23;;;;;;;;;4.75;4.75;;;;;25.65;52.74;100828.75;5058155;28;45415;-46
2021/09/10 07:36:49;;;;;;;;;7.00;7.00;;;;;25.66;52.71;100819.81;5039298;28;48086;-50
2021/09/10 07:39:19;;;;;;;;;5.00;4.00;;;;;25.66;52.38;100825.13;5057530;28;45278;-54
2021/09/10 07:41:46;;;;;;;;;5.75;5.25;;;;;25.66;52.22;100831.31;5056742;28;45240;-51
2021/09/10 07:44:14;;;;;;;;;6.75;5.50;;;;;25.65;52.60;100828.75;5039755;28;45392;-47
2021/09/10 07:46:40;;;;;;;;;8.00;7.00;;;;;25.67;52.39;100837.44;5057611;28;45598;-50
2021/09/10 07:49:07;;;;;;;;;6.25;5.75;;;;;25.61;52.36;100833.44;5057350;28;45729;-45
2021/09/10 07:51:32;;;;;;;;;5.75;5.75;;;;;25.56;52.72;100840.94;5057573;28;45273;-48
2021/09/10 07:53:58;;;;;;;;;7.75;5.75;;;;;25.51;52.47;100846.59;5057733;28;45409;-47
2021/09/10 07:56:23;;;;;;;;;4.75;4.75;;;;;25.45;52.58;100839.97;5057394;28;45354;-43
2021/09/10 07:58:48;;;;;;;;;6.00;6.00;;;;;25.40;52.64;100842.09;5057218;28;45485;-43
2021/09/10 08:01:23;;;;;;;;;7.00;7.00;;;;;25.38;52.82;100840.50;5111680;27;45394;-43
2021/09/10 08:03:48;;;;;;;;;5.00;5.00;;;;;25.36;53.27;100842.44;5093907;27;45413;-42
2021/09/10 08:06:14;;;;;;;;;9.25;8.00;;;;;25.36;52.70;100850.38;5093949;27;45385;-45
2021/09/10 08:08:39;;;;;;;;;7.00;7.00;;;;;25.34;52.84;100862.91;5094047;27;45283;-50
2021/09/10 08:11:04;;;;;;;;;5.50;5.50;;;;;25.35;52.97;100854.00;5092278;27;46265;-47
2021/09/10 08:13:30;;;;;;;;;7.00;6.75;;;;;25.34;52.77;100868.22;5093593;27;45349;-45
2021/09/10 08:15:56;;;;;;;;;7.75;7.25;;;;;25.30;53.13;100865.78;5094074;27;45340;-43
2021/09/10 08:18:21;;;;;;;;;5.00;5.00;;;;;25.30;53.05;100875.56;5094040;27;45247;-42
2021/09/10 08:20:47;;;;;;;;;7.00;5.00;;;;;25.31;53.36;100870.13;5093263;27;46518;-43
2021/09/10 08:23:12;;;;;;;;;7.25;6.50;;;;;25.32;53.31;100871.84;5093503;27;45324;-45
2021/09/10 08:25:38;;;;;;;;;6.00;6.00;;;;;25.30;53.14;100862.31;5093516;27;45243;-44
2021/09/10 08:28:03;;;;;;;;;6.50;5.25;;;;;25.27;53.00;100868.69;5093744;27;45181;-45
2021/09/10 08:30:29;;;;;;;;;5.00;5.00;;;;;25.25;52.75;100865.31;5093321;27;45463;-44
2021/09/10 08:32:55;;;;;;;;;6.25;5.00;;;;;25.26;52.60;100867.00;5093577;27;45432;-44
2021/09/10 08:35:21;;;;;;;;;5.75;5.75;;;;;25.26;52.85;100877.63;5093270;27;45387;-45
2021/09/10 08:37:46;;;;;;;;;5.25;5.25;;;;;25.24;53.16;100868.91;5093485;27;45313;-44
2021/09/10 08:40:12;;;;;;;;;6.25;5.25;;;;;25.25;53.08;100865.31;5093064;27;45676;-45
2021/09/10 08:42:37;;;;;;;;;6.25;6.25;;;;;25.27;53.35;100875.78;5093377;27;45919;-43
2021/09/10 08:45:04;;;;;;;;;7.75;6.00;;;;;25.27;53.27;100873.13;5093210;27;45411;-44
2021/09/10 08:47:29;;;;;;;;;7.50;6.00;;;;;25.24;53.03;100878.69;5093178;27;45520;-45
2021/09/10 08:49:55;;;;;;;;;5.50;5.50;;;;;25.24;53.30;100879.53;5093079;27;46259;-45
2021/09/10 08:52:21;;;;;;;;;5.25;5.25;;;;;25.25;52.57;100886.53;5093023;27;45319;-50
2021/09/10 08:54:47;;;;;;;;;4.50;4.50;;;;;25.22;52.79;100875.31;5108947;27;45396;-48
2021/09/10 08:57:12;;;;;;;;;5.50;5.50;;;;;25.22;52.52;100886.75;5093253;27;45228;-46
2021/09/10 08:59:37;;;;;;;;;5.75;5.75;;;;;25.24;52.80;100884.84;5086635;27;46117;-46
2021/09/10 09:02:03;;;;;;;;;6.00;6.00;;;;;25.24;52.98;100884.84;5072472;28;45453;-44
2021/09/10 09:04:30;;;;;;;;;6.75;5.75;;;;;25.26;52.57;100887.34;5072783;28;45395;-47
2021/09/10 09:06:56;;;;;;;;;7.50;6.50;;;;;25.26;52.73;100890.88;5073066;28;45329;-52
2021/09/10 09:09:37;;;;;;;;;7.00;6.00;;;;;25.22;52.30;100889.41;5054063;28;48015;-59
2021/09/10 09:12:26;;;;;;;;;9.00;5.75;;;;;25.22;52.67;100892.06;5062663;28;45675;-52
2021/09/10 09:14:57;;;;;;;;;6.00;6.00;;;;;25.21;52.83;100885.06;5058994;28;45359;-46
2021/09/10 09:17:33;;;;;;;;;4.50;4.00;;;;;25.22;53.07;100883.25;5059448;28;45327;-50
2021/09/10 09:20:24;;;;;;;;;5.25;4.25;;;;;25.22;52.79;100886.75;5059046;28;46412;-44
2021/09/10 09:22:55;;;;;;;;;5.00;5.00;;;;;25.25;52.50;100886.53;5058597;28;45268;-48
2021/09/10 09:25:33;;;;;;;;;5.25;4.25;;;;;25.26;52.73;100890.88;5058870;28;45269;-50
2021/09/10 09:28:15;;;;;;;;;7.00;6.00;;;;;25.28;52.33;100896.06;5057812;28;45569;-52
2021/09/10 09:30:42;;;;;;;;;4.00;4.00;;;;;25.31;52.67;100901.13;5058572;28;45481;-51
2021/09/10 09:33:07;;;;;;;;;6.00;5.00;;;;;25.30;52.29;100897.63;5058495;28;45327;-48
2021/09/10 09:35:33;;;;;;;;;6.00;4.75;;;;;25.30;52.40;100894.97;5058498;28;45458;-48
2021/09/10 09:38:08;;;;;;;;;5.00;5.00;;;;;25.31;52.20;100894.00;5058887;28;45686;-53
2021/09/10 09:40:34;;;;;;;;;5.25;5.25;;;;;25.34;52.02;100889.44;5058411;28;46366;-54
2021/09/10 09:43:12;;;;;;;;;6.00;5.00;;;;;25.37;51.89;100889.22;5058728;28;45245;-57
2021/09/10 09:45:37;;;;;;;;;5.00;5.00;;;;;25.38;51.78;100898.88;5057110;28;45442;-49
2021/09/10 09:48:09;;;;;;;;;6.75;6.50;;;;;25.37;51.85;100897.19;5058720;28;45599;-52
2021/09/10 09:50:34;;;;;;;;;7.50;6.25;;;;;25.39;51.94;100889.97;5056967;28;48663;-57
2021/09/10 09:53:01;;;;;;;;;5.75;5.00;;;;;25.40;52.11;100894.31;5058606;28;45325;-53
2021/09/10 09:55:28;;;;;;;;;3.00;3.00;;;;;25.42;51.73;100901.22;5058542;28;45383;-55
2021/09/10 09:57:55;;;;;;;;;5.00;5.00;;;;;25.46;51.69;100899.16;5058465;28;45224;-59
2021/09/10 10:00:20;;;;;;;;;6.75;6.75;;;;;25.47;51.66;100895.56;5069565;28;46332;-56
2021/09/10 10:02:46;;;;;;;;;7.25;6.75;;;;;25.50;51.75;100900.63;5078255;28;45285;-58
2021/09/10 10:05:16;;;;;;;;;5.50;4.75;;;;;25.51;51.80;100891.72;5078423;28;45412;-57
2021/09/10 10:07:47;;;;;;;;;7.00;6.00;;;;;25.53;51.82;100905.69;5078677;28;45253;-53
2021/09/10 10:10:19;;;;;;;;;4.75;4.75;;;;;25.54;51.56;100886.16;5078171;28;46431;-54
2021/09/10 10:12:48;;;;;;;;;7.00;6.00;;;;;25.57;51.16;100896.53;5078129;27;45731;-56
2021/09/10 10:15:23;;;;;;;;;6.50;6.50;;;;;25.59;51.38;100889.31;5078067;28;45298;-60
2021/09/10 10:17:49;;;;;;;;;7.75;7.75;;;;;25.60;51.54;100896.31;5078315;28;45426;-60
2021/09/10 10:20:46;;;;;;;;;5.00;4.25;;;;;25.63;51.27;100892.56;5077634;28;46162;-54
2021/09/10 10:23:42;;;;;;;;;6.00;6.00;;;;;25.62;50.90;100883.78;5076858;28;45555;-61
2021/09/10 10:26:10;;;;;;;;;6.25;5.00;;;;;25.64;50.89;100883.66;5078292;28;45395;-57
2021/09/10 10:28:54;;;;;;;;;4.75;4.75;;;;;25.65;50.57;100879.19;5078303;28;45385;-55
2021/09/10 10:31:57;;;;;;;;;4.25;4.00;;;;;25.66;50.50;100878.22;5077789;28;46188;-54
2021/09/10 10:34:24;;;;;;;;;3.50;3.50;;;;;25.67;50.55;100874.59;5077963;28;45781;-54
2021/09/10 10:36:49;;;;;;;;;5.00;5.00;;;;;25.69;50.40;100862.91;5077913;28;45350;-58
2021/09/10 10:39:26;;;;;;;;;5.25;4.75;;;;;25.72;50.63;100867.16;5077916;28;45571;-54
2021/09/10 10:41:56;;;;;;;;;5.00;5.00;;;;;25.75;50.24;100869.53;5077708;28;45595;-55
2021/09/10 10:44:34;;;;;;;;;7.00;5.00;;;;;25.78;50.79;100877.28;5077651;28;45209;-55
2021/09/10 10:47:14;;;;;;;;;6.00;6.00;;;;;25.80;50.28;100858.59;5093824;27;45811;-53
2021/09/10 10:49:49;;;;;;;;;5.25;4.75;;;;;25.81;50.31;100861.13;5077902;28;45452;-47
2021/09/10 10:52:38;;;;;;;;;5.25;5.25;;;;;25.84;50.73;100866.19;5077515;28;46560;-53
2021/09/10 10:55:17;;;;;;;;;7.50;6.00;;;;;25.87;50.59;100867.75;5077822;28;45752;-45
2021/09/10 10:57:43;;;;;;;;;6.75;5.00;;;;;25.88;49.67;100864.97;5075661;28;45458;-55
2021/09/10 11:00:27;;;;;;;;;7.50;4.25;;;;;25.89;49.61;100853.38;5077578;28;45564;-55
2021/09/10 11:03:12;;;;;;;;;5.75;5.75;;;;;25.90;50.13;100854.25;5077449;28;45405;-58
2021/09/10 11:05:38;;;;;;;;;4.75;4.75;;;;;25.90;49.69;100865.69;5077384;28;45407;-60
2021/09/10 11:08:04;;;;;;;;;5.25;5.25;;;;;25.89;49.52;100856.03;5077929;28;45422;-52
2021/09/10 11:10:29;;;;;;;;;8.00;5.00;;;;;25.88;49.65;100862.31;5077764;28;45560;-56
2021/09/10 11:12:56;;;;;;;;;3.75;3.50;;;;;25.89;49.17;100847.25;5077126;28;46568;-57
2021/09/10 11:15:25;;;;;;;;;7.00;5.25;;;;;25.91;49.13;100853.25;5077250;28;45296;-61
2021/09/10 11:17:55;;;;;;;;;5.50;5.00;;;;;25.92;49.37;100862.91;5077324;28;45362;-58
2021/09/10 11:20:39;;;;;;;;;7.00;6.75;;;;;25.92;49.09;100844.31;5077387;28;45329;-57
2021/09/10 11:23:10;;;;;;;;;7.00;6.00;;;;;25.92;49.19;100847.84;5077415;28;46041;-54